sensor_id;sensor_type;location;lat;lon;timestamp;P1;durP1;ratioP1;P2;durP2;ratioP2
14001;SDS011;7076;51.280;12.584;2022-11-20T00:01:41;12.70;;;7.90;;
14001;SDS011;7076;51.280;12.584;2022-11-20T00:06:44;14.27;;;8.13;;
14001;SDS011;7076;51.280;12.584;2022-11-20T00:11:47;13.53;;;7.90;;
14001;SDS011;7076;51.280;12.584;2022-11-20T00:16:51;13.23;;;7.73;;
14001;SDS011;7076;51.280;12.584;2022-11-20T00:21:54;13.63;;;7.73;;
14001;SDS011;7076;51.280;12.584;2022-11-20T00:26:56;12.83;;;8.30;;
14001;SDS011;7076;51.280;12.584;2022-11-20T00:32:01;9.93;;;6.53;;
14001;SDS011;7076;51.280;12.584;2022-11-20T00:37:03;11.77;;;6.83;;
14001;SDS011;7076;51.280;12.584;2022-11-20T00:42:06;10.47;;;7.13;;
14001;SDS011;7076;51.280;12.584;2022-11-20T00:47:11;11.87;;;6.97;;
14001;SDS011;7076;51.280;12.584;2022-11-20T00:52:13;13.60;;;7.60;;
14001;SDS011;7076;51.280;12.584;2022-11-20T00:57:16;11.97;;;7.77;;
14001;SDS011;7076;51.280;12.584;2022-11-20T01:02:20;11.10;;;7.50;;
14001;SDS011;7076;51.280;12.584;2022-11-20T01:07:23;10.43;;;6.10;;
14001;SDS011;7076;51.280;12.584;2022-11-20T01:12:26;12.63;;;6.37;;
14001;SDS011;7076;51.280;12.584;2022-11-20T01:17:30;12.73;;;7.80;;
14001;SDS011;7076;51.280;12.584;2022-11-20T01:22:33;10.50;;;7.13;;
14001;SDS011;7076;51.280;12.584;2022-11-20T01:27:36;14.57;;;7.67;;
14001;SDS011;7076;51.280;12.584;2022-11-20T01:32:40;10.50;;;6.97;;
14001;SDS011;7076;51.280;12.584;2022-11-20T01:37:42;11.90;;;7.87;;
14001;SDS011;7076;51.280;12.584;2022-11-20T01:42:46;13.93;;;7.63;;
14001;SDS011;7076;51.280;12.584;2022-11-20T01:48:09;9.33;;;5.90;;
14001;SDS011;7076;51.280;12.584;2022-11-20T01:53:13;9.17;;;6.40;;
14001;SDS011;7076;51.280;12.584;2022-11-20T01:58:17;14.73;;;7.53;;
14001;SDS011;7076;51.280;12.584;2022-11-20T02:03:23;13.67;;;7.63;;
14001;SDS011;7076;51.280;12.584;2022-11-20T02:08:26;15.07;;;8.47;;
14001;SDS011;7076;51.280;12.584;2022-11-20T02:13:29;11.10;;;6.87;;
14001;SDS011;7076;51.280;12.584;2022-11-20T02:18:48;13.17;;;7.47;;
14001;SDS011;7076;51.280;12.584;2022-11-20T02:29:15;14.07;;;7.80;;
14001;SDS011;7076;51.280;12.584;2022-11-20T02:34:19;13.47;;;8.23;;
14001;SDS011;7076;51.280;12.584;2022-11-20T02:39:23;13.50;;;8.17;;
14001;SDS011;7076;51.280;12.584;2022-11-20T02:44:27;12.17;;;7.57;;
14001;SDS011;7076;51.280;12.584;2022-11-20T02:49:30;14.17;;;7.83;;
14001;SDS011;7076;51.280;12.584;2022-11-20T02:54:35;13.70;;;8.47;;
14001;SDS011;7076;51.280;12.584;2022-11-20T02:59:37;14.53;;;8.70;;
14001;SDS011;7076;51.280;12.584;2022-11-20T03:04:40;16.57;;;8.43;;
14001;SDS011;7076;51.280;12.584;2022-11-20T03:09:44;15.73;;;9.80;;
14001;SDS011;7076;51.280;12.584;2022-11-20T03:14:47;15.83;;;9.73;;
14001;SDS011;7076;51.280;12.584;2022-11-20T03:19:53;15.47;;;9.10;;
14001;SDS011;7076;51.280;12.584;2022-11-20T03:24:57;16.10;;;9.27;;
14001;SDS011;7076;51.280;12.584;2022-11-20T03:30:00;13.03;;;8.40;;
14001;SDS011;7076;51.280;12.584;2022-11-20T03:35:03;15.60;;;8.77;;
14001;SDS011;7076;51.280;12.584;2022-11-20T03:40:08;16.20;;;9.17;;
14001;SDS011;7076;51.280;12.584;2022-11-20T03:45:11;13.30;;;8.73;;
14001;SDS011;7076;51.280;12.584;2022-11-20T03:50:15;16.73;;;8.80;;
14001;SDS011;7076;51.280;12.584;2022-11-20T03:55:19;13.47;;;8.27;;
14001;SDS011;7076;51.280;12.584;2022-11-20T04:00:22;15.90;;;8.27;;
14001;SDS011;7076;51.280;12.584;2022-11-20T04:05:24;14.90;;;7.83;;
14001;SDS011;7076;51.280;12.584;2022-11-20T04:10:29;13.90;;;8.27;;
14001;SDS011;7076;51.280;12.584;2022-11-20T04:15:31;14.23;;;7.77;;
14001;SDS011;7076;51.280;12.584;2022-11-20T04:20:38;12.50;;;7.80;;
14001;SDS011;7076;51.280;12.584;2022-11-20T04:25:43;10.87;;;6.47;;
14001;SDS011;7076;51.280;12.584;2022-11-20T04:30:46;11.30;;;6.57;;
14001;SDS011;7076;51.280;12.584;2022-11-20T04:35:48;12.07;;;7.40;;
14001;SDS011;7076;51.280;12.584;2022-11-20T04:40:53;15.63;;;9.17;;
14001;SDS011;7076;51.280;12.584;2022-11-20T04:45:59;12.87;;;6.93;;
14001;SDS011;7076;51.280;12.584;2022-11-20T04:51:02;14.43;;;7.67;;
14001;SDS011;7076;51.280;12.584;2022-11-20T04:56:07;12.37;;;8.00;;
14001;SDS011;7076;51.280;12.584;2022-11-20T05:01:11;13.67;;;7.93;;
14001;SDS011;7076;51.280;12.584;2022-11-20T05:06:16;13.53;;;7.10;;
14001;SDS011;7076;51.280;12.584;2022-11-20T05:11:21;16.97;;;8.23;;
14001;SDS011;7076;51.280;12.584;2022-11-20T05:16:24;13.33;;;6.93;;
14001;SDS011;7076;51.280;12.584;2022-11-20T05:21:29;13.37;;;7.23;;
14001;SDS011;7076;51.280;12.584;2022-11-20T05:26:33;12.83;;;6.77;;
14001;SDS011;7076;51.280;12.584;2022-11-20T05:31:36;13.27;;;7.00;;
14001;SDS011;7076;51.280;12.584;2022-11-20T05:36:41;12.70;;;6.90;;
14001;SDS011;7076;51.280;12.584;2022-11-20T05:41:45;12.60;;;7.60;;
14001;SDS011;7076;51.280;12.584;2022-11-20T05:47:08;12.03;;;6.97;;
14001;SDS011;7076;51.280;12.584;2022-11-20T05:52:11;13.03;;;7.37;;
14001;SDS011;7076;51.280;12.584;2022-11-20T05:57:15;12.93;;;7.50;;
14001;SDS011;7076;51.280;12.584;2022-11-20T06:02:18;10.07;;;6.20;;
14001;SDS011;7076;51.280;12.584;2022-11-20T06:07:21;12.73;;;7.50;;
14001;SDS011;7076;51.280;12.584;2022-11-20T06:12:25;12.97;;;7.10;;
14001;SDS011;7076;51.280;12.584;2022-11-20T06:17:28;12.30;;;6.77;;
14001;SDS011;7076;51.280;12.584;2022-11-20T06:22:31;10.07;;;5.90;;
14001;SDS011;7076;51.280;12.584;2022-11-20T06:27:35;12.67;;;6.70;;
14001;SDS011;7076;51.280;12.584;2022-11-20T06:32:38;12.33;;;6.30;;
14001;SDS011;7076;51.280;12.584;2022-11-20T06:37:41;11.93;;;6.70;;
14001;SDS011;7076;51.280;12.584;2022-11-20T06:42:46;14.27;;;7.97;;
14001;SDS011;7076;51.280;12.584;2022-11-20T06:47:48;12.30;;;7.07;;
14001;SDS011;7076;51.280;12.584;2022-11-20T06:52:51;10.20;;;6.90;;
14001;SDS011;7076;51.280;12.584;2022-11-20T06:57:55;9.53;;;5.97;;
14001;SDS011;7076;51.280;12.584;2022-11-20T07:02:58;12.03;;;6.50;;
14001;SDS011;7076;51.280;12.584;2022-11-20T07:08:05;13.63;;;5.80;;
14001;SDS011;7076;51.280;12.584;2022-11-20T07:13:09;9.23;;;6.17;;
14001;SDS011;7076;51.280;12.584;2022-11-20T07:18:12;10.00;;;5.37;;
14001;SDS011;7076;51.280;12.584;2022-11-20T07:23:15;8.83;;;5.17;;
14001;SDS011;7076;51.280;12.584;2022-11-20T07:28:19;9.33;;;5.27;;
14001;SDS011;7076;51.280;12.584;2022-11-20T07:33:21;9.57;;;5.27;;
14001;SDS011;7076;51.280;12.584;2022-11-20T07:38:24;10.97;;;5.27;;
14001;SDS011;7076;51.280;12.584;2022-11-20T07:43:28;8.43;;;4.90;;
14001;SDS011;7076;51.280;12.584;2022-11-20T07:48:31;9.57;;;5.40;;
14001;SDS011;7076;51.280;12.584;2022-11-20T07:53:34;8.87;;;5.07;;
14001;SDS011;7076;51.280;12.584;2022-11-20T07:58:38;8.50;;;5.30;;
14001;SDS011;7076;51.280;12.584;2022-11-20T08:03:41;13.80;;;7.07;;
14001;SDS011;7076;51.280;12.584;2022-11-20T08:08:44;12.37;;;6.57;;
14001;SDS011;7076;51.280;12.584;2022-11-20T08:13:48;10.63;;;6.30;;
14001;SDS011;7076;51.280;12.584;2022-11-20T08:19:08;10.57;;;6.03;;
14001;SDS011;7076;51.280;12.584;2022-11-20T08:24:11;14.33;;;7.67;;
14001;SDS011;7076;51.280;12.584;2022-11-20T08:29:15;14.10;;;7.27;;
14001;SDS011;7076;51.280;12.584;2022-11-20T08:34:18;10.87;;;6.90;;
14001;SDS011;7076;51.280;12.584;2022-11-20T08:39:21;12.23;;;6.97;;
14001;SDS011;7076;51.280;12.584;2022-11-20T08:44:26;11.50;;;7.23;;
14001;SDS011;7076;51.280;12.584;2022-11-20T08:49:28;16.00;;;9.13;;
14001;SDS011;7076;51.280;12.584;2022-11-20T08:54:31;16.80;;;8.27;;
14001;SDS011;7076;51.280;12.584;2022-11-20T08:59:35;14.87;;;8.63;;
14001;SDS011;7076;51.280;12.584;2022-11-20T09:04:58;18.17;;;9.90;;
14001;SDS011;7076;51.280;12.584;2022-11-20T09:10:03;16.50;;;9.60;;
14001;SDS011;7076;51.280;12.584;2022-11-20T09:15:28;21.10;;;9.63;;
14001;SDS011;7076;51.280;12.584;2022-11-20T09:20:31;14.97;;;8.43;;
14001;SDS011;7076;51.280;12.584;2022-11-20T09:25:34;17.33;;;10.00;;
14001;SDS011;7076;51.280;12.584;2022-11-20T09:30:38;13.63;;;8.73;;
14001;SDS011;7076;51.280;12.584;2022-11-20T09:35:41;17.03;;;9.70;;
14001;SDS011;7076;51.280;12.584;2022-11-20T09:40:45;15.67;;;8.63;;
14001;SDS011;7076;51.280;12.584;2022-11-20T09:45:56;15.77;;;8.73;;
14001;SDS011;7076;51.280;12.584;2022-11-20T09:51:06;14.77;;;8.83;;
14001;SDS011;7076;51.280;12.584;2022-11-20T09:56:12;16.80;;;10.17;;
14001;SDS011;7076;51.280;12.584;2022-11-20T10:01:26;15.23;;;8.70;;
14001;SDS011;7076;51.280;12.584;2022-11-20T10:06:31;18.93;;;10.23;;
14001;SDS011;7076;51.280;12.584;2022-11-20T10:11:48;16.30;;;8.83;;
14001;SDS011;7076;51.280;12.584;2022-11-20T10:16:58;14.83;;;9.57;;
14001;SDS011;7076;51.280;12.584;2022-11-20T10:22:07;14.60;;;8.70;;
14001;SDS011;7076;51.280;12.584;2022-11-20T10:27:23;13.37;;;8.70;;
14001;SDS011;7076;51.280;12.584;2022-11-20T10:32:36;18.33;;;10.37;;
14001;SDS011;7076;51.280;12.584;2022-11-20T10:37:41;12.83;;;8.63;;
14001;SDS011;7076;51.280;12.584;2022-11-20T10:42:46;15.83;;;8.07;;
14001;SDS011;7076;51.280;12.584;2022-11-20T10:47:54;13.43;;;7.73;;
14001;SDS011;7076;51.280;12.584;2022-11-20T10:52:59;10.53;;;6.60;;
14001;SDS011;7076;51.280;12.584;2022-11-20T10:58:08;11.80;;;6.60;;
14001;SDS011;7076;51.280;12.584;2022-11-20T11:03:19;13.30;;;8.17;;
14001;SDS011;7076;51.280;12.584;2022-11-20T11:08:24;9.30;;;5.23;;
14001;SDS011;7076;51.280;12.584;2022-11-20T11:13:30;10.73;;;5.50;;
14001;SDS011;7076;51.280;12.584;2022-11-20T11:18:35;5.83;;;4.00;;
14001;SDS011;7076;51.280;12.584;2022-11-20T11:23:39;5.90;;;3.33;;
14001;SDS011;7076;51.280;12.584;2022-11-20T11:28:42;5.67;;;3.97;;
14001;SDS011;7076;51.280;12.584;2022-11-20T11:34:04;7.93;;;3.80;;
14001;SDS011;7076;51.280;12.584;2022-11-20T11:39:10;5.23;;;3.30;;
14001;SDS011;7076;51.280;12.584;2022-11-20T11:44:16;4.33;;;2.93;;
14001;SDS011;7076;51.280;12.584;2022-11-20T11:49:38;4.67;;;2.80;;
14001;SDS011;7076;51.280;12.584;2022-11-20T11:54:42;4.40;;;2.70;;
14001;SDS011;7076;51.280;12.584;2022-11-20T11:59:51;5.70;;;3.63;;
14001;SDS011;7076;51.280;12.584;2022-11-20T12:05:02;4.93;;;3.17;;
14001;SDS011;7076;51.280;12.584;2022-11-20T12:10:12;4.83;;;3.13;;
14001;SDS011;7076;51.280;12.584;2022-11-20T12:15:22;5.60;;;3.30;;
14001;SDS011;7076;51.280;12.584;2022-11-20T12:20:32;7.17;;;3.97;;
14001;SDS011;7076;51.280;12.584;2022-11-20T12:25:38;6.50;;;4.07;;
14001;SDS011;7076;51.280;12.584;2022-11-20T12:30:48;6.53;;;4.27;;
14001;SDS011;7076;51.280;12.584;2022-11-20T12:36:07;6.20;;;4.03;;
14001;SDS011;7076;51.280;12.584;2022-11-20T12:41:20;8.27;;;3.83;;
14001;SDS011;7076;51.280;12.584;2022-11-20T12:46:56;6.70;;;4.37;;
14001;SDS011;7076;51.280;12.584;2022-11-20T12:52:14;7.23;;;5.37;;
14001;SDS011;7076;51.280;12.584;2022-11-20T12:57:28;7.93;;;4.83;;
14001;SDS011;7076;51.280;12.584;2022-11-20T13:02:36;8.93;;;5.63;;
14001;SDS011;7076;51.280;12.584;2022-11-20T13:07:48;8.33;;;6.20;;
14001;SDS011;7076;51.280;12.584;2022-11-20T13:12:55;8.77;;;5.90;;
14001;SDS011;7076;51.280;12.584;2022-11-20T13:17:59;9.50;;;5.77;;
14001;SDS011;7076;51.280;12.584;2022-11-20T13:23:04;7.73;;;5.57;;
14001;SDS011;7076;51.280;12.584;2022-11-20T13:33:31;8.80;;;5.97;;
14001;SDS011;7076;51.280;12.584;2022-11-20T13:38:44;9.83;;;6.63;;
14001;SDS011;7076;51.280;12.584;2022-11-20T13:43:49;8.80;;;5.73;;
14001;SDS011;7076;51.280;12.584;2022-11-20T13:48:52;9.67;;;5.90;;
14001;SDS011;7076;51.280;12.584;2022-11-20T13:59:42;7.63;;;4.63;;
14001;SDS011;7076;51.280;12.584;2022-11-20T14:04:52;6.73;;;4.37;;
14001;SDS011;7076;51.280;12.584;2022-11-20T14:09:56;7.03;;;4.27;;
14001;SDS011;7076;51.280;12.584;2022-11-20T14:15:01;9.73;;;5.20;;
14001;SDS011;7076;51.280;12.584;2022-11-20T14:20:05;6.93;;;4.83;;
14001;SDS011;7076;51.280;12.584;2022-11-20T14:25:18;11.87;;;7.77;;
14001;SDS011;7076;51.280;12.584;2022-11-20T14:30:24;7.90;;;4.67;;
14001;SDS011;7076;51.280;12.584;2022-11-20T14:35:29;8.03;;;4.77;;
14001;SDS011;7076;51.280;12.584;2022-11-20T14:40:33;6.10;;;3.77;;
14001;SDS011;7076;51.280;12.584;2022-11-20T14:45:38;7.40;;;4.57;;
14001;SDS011;7076;51.280;12.584;2022-11-20T14:50:41;6.73;;;4.50;;
14001;SDS011;7076;51.280;12.584;2022-11-20T14:55:44;8.37;;;5.20;;
14001;SDS011;7076;51.280;12.584;2022-11-20T15:01:01;8.37;;;5.00;;
14001;SDS011;7076;51.280;12.584;2022-11-20T15:06:06;7.77;;;4.60;;
14001;SDS011;7076;51.280;12.584;2022-11-20T15:11:16;7.67;;;5.03;;
14001;SDS011;7076;51.280;12.584;2022-11-20T15:16:22;8.30;;;5.07;;
14001;SDS011;7076;51.280;12.584;2022-11-20T15:21:26;8.67;;;4.80;;
14001;SDS011;7076;51.280;12.584;2022-11-20T15:26:29;10.13;;;6.27;;
14001;SDS011;7076;51.280;12.584;2022-11-20T15:31:36;8.90;;;4.40;;
14001;SDS011;7076;51.280;12.584;2022-11-20T15:36:42;10.83;;;5.37;;
14001;SDS011;7076;51.280;12.584;2022-11-20T15:41:45;6.83;;;4.97;;
14001;SDS011;7076;51.280;12.584;2022-11-20T15:46:51;11.17;;;6.20;;
14001;SDS011;7076;51.280;12.584;2022-11-20T15:51:54;7.50;;;4.60;;
14001;SDS011;7076;51.280;12.584;2022-11-20T15:56:57;8.37;;;4.87;;
14001;SDS011;7076;51.280;12.584;2022-11-20T16:02:04;7.93;;;4.33;;
14001;SDS011;7076;51.280;12.584;2022-11-20T16:07:16;7.87;;;4.90;;
14001;SDS011;7076;51.280;12.584;2022-11-20T16:12:19;8.47;;;5.63;;
14001;SDS011;7076;51.280;12.584;2022-11-20T16:17:37;11.07;;;5.90;;
14001;SDS011;7076;51.280;12.584;2022-11-20T16:22:44;5.77;;;3.77;;
14001;SDS011;7076;51.280;12.584;2022-11-20T16:27:47;10.17;;;6.17;;
14001;SDS011;7076;51.280;12.584;2022-11-20T16:32:51;15.77;;;9.07;;
14001;SDS011;7076;51.280;12.584;2022-11-20T16:37:54;9.50;;;5.77;;
14001;SDS011;7076;51.280;12.584;2022-11-20T16:42:57;11.13;;;6.10;;
14001;SDS011;7076;51.280;12.584;2022-11-20T16:48:14;10.23;;;5.87;;
14001;SDS011;7076;51.280;12.584;2022-11-20T16:53:19;13.00;;;7.03;;
14001;SDS011;7076;51.280;12.584;2022-11-20T16:58:22;14.80;;;7.73;;
14001;SDS011;7076;51.280;12.584;2022-11-20T17:03:26;9.23;;;6.40;;
14001;SDS011;7076;51.280;12.584;2022-11-20T17:08:29;12.57;;;6.70;;
14001;SDS011;7076;51.280;12.584;2022-11-20T17:13:32;10.70;;;6.03;;
14001;SDS011;7076;51.280;12.584;2022-11-20T17:18:41;11.47;;;6.70;;
14001;SDS011;7076;51.280;12.584;2022-11-20T17:23:44;10.17;;;5.63;;
14001;SDS011;7076;51.280;12.584;2022-11-20T17:28:51;9.37;;;5.67;;
14001;SDS011;7076;51.280;12.584;2022-11-20T17:33:57;10.43;;;5.33;;
14001;SDS011;7076;51.280;12.584;2022-11-20T17:39:00;19.80;;;10.80;;
14001;SDS011;7076;51.280;12.584;2022-11-20T17:44:03;16.37;;;10.23;;
14001;SDS011;7076;51.280;12.584;2022-11-20T17:49:07;16.17;;;9.30;;
14001;SDS011;7076;51.280;12.584;2022-11-20T17:54:10;17.90;;;11.17;;
14001;SDS011;7076;51.280;12.584;2022-11-20T17:59:13;16.17;;;10.37;;
14001;SDS011;7076;51.280;12.584;2022-11-20T18:04:17;17.93;;;11.47;;
14001;SDS011;7076;51.280;12.584;2022-11-20T18:09:20;21.53;;;12.00;;
14001;SDS011;7076;51.280;12.584;2022-11-20T18:14:23;13.53;;;8.67;;
14001;SDS011;7076;51.280;12.584;2022-11-20T18:19:35;12.97;;;8.70;;
14001;SDS011;7076;51.280;12.584;2022-11-20T18:24:55;11.97;;;6.67;;
14001;SDS011;7076;51.280;12.584;2022-11-20T18:29:58;14.30;;;8.67;;
14001;SDS011;7076;51.280;12.584;2022-11-20T18:35:02;18.60;;;11.73;;
14001;SDS011;7076;51.280;12.584;2022-11-20T18:40:06;19.57;;;9.47;;
14001;SDS011;7076;51.280;12.584;2022-11-20T18:45:10;16.90;;;9.13;;
14001;SDS011;7076;51.280;12.584;2022-11-20T18:50:15;14.57;;;9.13;;
14001;SDS011;7076;51.280;12.584;2022-11-20T18:55:19;16.57;;;9.63;;
14001;SDS011;7076;51.280;12.584;2022-11-20T19:00:24;16.73;;;10.50;;
14001;SDS011;7076;51.280;12.584;2022-11-20T19:05:28;17.13;;;9.43;;
14001;SDS011;7076;51.280;12.584;2022-11-20T19:10:31;15.77;;;9.37;;
14001;SDS011;7076;51.280;12.584;2022-11-20T19:15:34;13.53;;;8.13;;
14001;SDS011;7076;51.280;12.584;2022-11-20T19:20:39;17.83;;;9.87;;
14001;SDS011;7076;51.280;12.584;2022-11-20T19:25:42;14.13;;;8.67;;
14001;SDS011;7076;51.280;12.584;2022-11-20T19:30:45;17.90;;;9.53;;
14001;SDS011;7076;51.280;12.584;2022-11-20T19:35:49;17.47;;;9.37;;
14001;SDS011;7076;51.280;12.584;2022-11-20T19:40:52;20.20;;;10.47;;
14001;SDS011;7076;51.280;12.584;2022-11-20T19:45:54;15.47;;;8.93;;
14001;SDS011;7076;51.280;12.584;2022-11-20T19:51:03;16.03;;;9.67;;
14001;SDS011;7076;51.280;12.584;2022-11-20T19:56:10;13.63;;;9.43;;
14001;SDS011;7076;51.280;12.584;2022-11-20T20:01:13;14.23;;;8.00;;
14001;SDS011;7076;51.280;12.584;2022-11-20T20:06:19;12.87;;;8.07;;
14001;SDS011;7076;51.280;12.584;2022-11-20T20:11:23;14.47;;;8.50;;
14001;SDS011;7076;51.280;12.584;2022-11-20T20:16:27;11.73;;;6.87;;
14001;SDS011;7076;51.280;12.584;2022-11-20T20:21:31;16.67;;;7.83;;
14001;SDS011;7076;51.280;12.584;2022-11-20T20:26:35;13.53;;;8.03;;
14001;SDS011;7076;51.280;12.584;2022-11-20T20:31:38;12.57;;;7.00;;
14001;SDS011;7076;51.280;12.584;2022-11-20T20:36:42;12.27;;;7.47;;
14001;SDS011;7076;51.280;12.584;2022-11-20T20:41:45;12.93;;;7.87;;
14001;SDS011;7076;51.280;12.584;2022-11-20T20:46:50;13.30;;;7.50;;
14001;SDS011;7076;51.280;12.584;2022-11-20T20:51:54;14.87;;;7.90;;
14001;SDS011;7076;51.280;12.584;2022-11-20T20:56:57;11.80;;;7.80;;
14001;SDS011;7076;51.280;12.584;2022-11-20T21:02:00;14.20;;;8.50;;
14001;SDS011;7076;51.280;12.584;2022-11-20T21:07:04;12.50;;;7.57;;
14001;SDS011;7076;51.280;12.584;2022-11-20T21:12:07;12.67;;;7.57;;
14001;SDS011;7076;51.280;12.584;2022-11-20T21:17:10;11.03;;;5.87;;
14001;SDS011;7076;51.280;12.584;2022-11-20T21:22:17;13.00;;;7.47;;
14001;SDS011;7076;51.280;12.584;2022-11-20T21:27:20;13.87;;;7.90;;
14001;SDS011;7076;51.280;12.584;2022-11-20T21:32:22;13.60;;;8.33;;
14001;SDS011;7076;51.280;12.584;2022-11-20T21:37:27;13.23;;;7.47;;
14001;SDS011;7076;51.280;12.584;2022-11-20T21:42:29;13.63;;;7.87;;
14001;SDS011;7076;51.280;12.584;2022-11-20T21:47:32;14.93;;;8.70;;
14001;SDS011;7076;51.280;12.584;2022-11-20T21:52:36;13.03;;;7.40;;
14001;SDS011;7076;51.280;12.584;2022-11-20T21:57:39;11.87;;;7.87;;
14001;SDS011;7076;51.280;12.584;2022-11-20T22:02:42;14.53;;;8.50;;
14001;SDS011;7076;51.280;12.584;2022-11-20T22:07:46;12.83;;;8.43;;
14001;SDS011;7076;51.280;12.584;2022-11-20T22:12:49;13.33;;;7.60;;
14001;SDS011;7076;51.280;12.584;2022-11-20T22:17:52;12.97;;;7.73;;
14001;SDS011;7076;51.280;12.584;2022-11-20T22:23:13;13.53;;;7.77;;
14001;SDS011;7076;51.280;12.584;2022-11-20T22:28:16;13.37;;;7.67;;
14001;SDS011;7076;51.280;12.584;2022-11-20T22:33:19;13.70;;;7.77;;
14001;SDS011;7076;51.280;12.584;2022-11-20T22:38:25;14.87;;;8.03;;
14001;SDS011;7076;51.280;12.584;2022-11-20T22:43:30;16.07;;;8.93;;
14001;SDS011;7076;51.280;12.584;2022-11-20T22:48:34;13.47;;;7.93;;
14001;SDS011;7076;51.280;12.584;2022-11-20T22:53:39;16.20;;;8.17;;
14001;SDS011;7076;51.280;12.584;2022-11-20T22:58:42;12.93;;;7.90;;
14001;SDS011;7076;51.280;12.584;2022-11-20T23:03:46;16.00;;;9.53;;
14001;SDS011;7076;51.280;12.584;2022-11-20T23:08:51;16.60;;;8.43;;
14001;SDS011;7076;51.280;12.584;2022-11-20T23:13:55;15.40;;;8.60;;
14001;SDS011;7076;51.280;12.584;2022-11-20T23:19:00;14.93;;;8.77;;
14001;SDS011;7076;51.280;12.584;2022-11-20T23:24:05;11.63;;;7.63;;
14001;SDS011;7076;51.280;12.584;2022-11-20T23:29:09;14.70;;;8.73;;
14001;SDS011;7076;51.280;12.584;2022-11-20T23:34:13;13.23;;;8.30;;
14001;SDS011;7076;51.280;12.584;2022-11-20T23:39:17;16.20;;;8.97;;
14001;SDS011;7076;51.280;12.584;2022-11-20T23:44:20;11.63;;;7.47;;
14001;SDS011;7076;51.280;12.584;2022-11-20T23:49:23;15.17;;;8.50;;
14001;SDS011;7076;51.280;12.584;2022-11-20T23:54:27;16.00;;;9.80;;
14001;SDS011;7076;51.280;12.584;2022-11-20T23:59:30;17.53;;;8.87;;
